aviador You're here:

KPHP Decoded Metar

PHILIP in SD, USA
Report Time2017-07-22 21:55:00
UTC Time2017-07-22 22:47:57
Flight Rules vfr VFR
Wind250° at 07 kt
W.Decomp.*RWY 23: 6.9 kt HW 1.1 kt RCW
RWY 30: 3.4 kt HW 6.1 kt LCW
W.Rank250° ranks 14
Current wind is below 250° avg. (7.4)
Visibility9999 m
Phenomena:N/A
Clouds:N/A
Expected CloudBase > 12,800 ft AGL from Temp-Dew spread
CeilingNone
Temp36°C (ISA +25)
Dew Point04°C (13% RH)
Heat Index33.4°C
AAT32.0°C
QNH1015 hPa
Density Alt5,108 ft
Elevation2,205 ft
Report Wrong Elevation
Raw Report
KPHP 222155Z AUTO 25007KT 10SM CLR 36/04 A2997 RMK AO2 SLP122
T03610039=

Extra information for KPHP:More info

Metar Taf Metar & Taf Last 4 Metars F.Rules Stats Wind Profile Meteogram Temp Stats Airport Information Weather charts Add Link Nearby VenuesMetar ALERT Operation Metar Decoded Social comments

AIRNAV info for KPHP